createdAt,value
2018-03-08T00:01:19.921Z,170.05
2018-03-08T00:03:47.575Z,156.80
2018-03-08T00:06:15.289Z,140.95
2018-03-08T00:08:43.121Z,143.20
2018-03-08T00:11:11.339Z,109.85
2018-03-08T00:13:38.958Z,113.28
2018-03-08T00:16:06.620Z,115.12
2018-03-08T00:18:34.233Z,125.03
2018-03-08T00:21:01.885Z,104.70
2018-03-08T00:23:29.726Z,123.57
2018-03-08T00:25:57.388Z,116.50
2018-03-08T00:28:25.003Z,129.00
2018-03-08T00:30:52.617Z,125.60
2018-03-08T00:33:20.268Z,111.70
2018-03-08T00:35:47.887Z,128.00
2018-03-08T00:38:15.529Z,130.97
2018-03-08T00:40:43.184Z,117.07
2018-03-08T00:43:10.839Z,114.27
2018-03-08T00:45:39.221Z,123.40
2018-03-08T00:48:07.641Z,129.57
2018-03-08T00:50:35.264Z,116.87
2018-03-08T00:53:02.915Z,131.40
2018-03-08T00:55:30.531Z,271.43
2018-03-08T00:57:58.189Z,111.28
2018-03-08T01:00:25.851Z,111.87
2018-03-08T01:02:53.508Z,126.47
2018-03-08T01:05:21.116Z,115.93
2018-03-08T01:07:48.744Z,102.95
2018-03-08T01:10:16.393Z,114.77
2018-03-08T01:12:44.001Z,99.90
2018-03-08T01:15:13.024Z,94.40
2018-03-08T01:17:41.121Z,104.00
2018-03-08T01:20:08.811Z,97.83
2018-03-08T01:22:37.203Z,99.20
2018-03-08T01:25:05.365Z,89.23
2018-03-08T01:27:32.979Z,92.33
2018-03-08T01:30:00.632Z,92.50
2018-03-08T01:32:28.248Z,102.93
2018-03-08T01:34:55.917Z,100.03
2018-03-08T01:37:23.576Z,105.80
2018-03-08T01:39:51.184Z,96.22
2018-03-08T01:42:18.805Z,78.97
2018-03-08T01:44:46.452Z,85.38
2018-03-08T01:47:14.861Z,88.70
2018-03-08T01:49:42.561Z,84.80
2018-03-08T01:52:12.138Z,97.20
2018-03-08T01:54:39.925Z,96.17
2018-03-08T01:57:07.576Z,87.87
2018-03-08T01:59:35.188Z,92.40
2018-03-08T02:02:03.564Z,98.43
2018-03-08T02:04:31.984Z,102.33
2018-03-08T02:07:00.189Z,98.40
2018-03-08T02:09:29.358Z,102.53
2018-03-08T02:11:57.028Z,89.68
2018-03-08T02:14:24.680Z,104.27
2018-03-08T02:16:52.289Z,93.47
2018-03-08T02:19:20.706Z,90.12
2018-03-08T02:21:48.317Z,91.25
2018-03-08T02:24:16.717Z,98.30
2018-03-08T02:26:44.341Z,91.30
2018-03-08T02:29:11.984Z,92.55
2018-03-08T02:31:39.644Z,94.97
2018-03-08T02:34:07.514Z,91.67
2018-03-08T02:36:35.130Z,93.90
2018-03-08T02:39:02.783Z,95.33
2018-03-08T02:41:30.406Z,97.30
2018-03-08T02:43:58.064Z,110.27
2018-03-08T02:46:26.488Z,102.22
2018-03-08T02:48:54.148Z,86.27
2018-03-08T02:51:21.756Z,93.70
2018-03-08T02:53:49.377Z,86.90
2018-03-08T02:56:17.034Z,80.03
2018-03-08T02:58:44.664Z,85.20
2018-03-08T03:01:12.316Z,90.97
2018-03-08T03:03:40.693Z,103.60
2018-03-08T03:06:09.129Z,102.60
2018-03-08T03:08:36.802Z,89.77
2018-03-08T03:11:04.416Z,91.50
2018-03-08T03:13:32.064Z,93.37
2018-03-08T03:16:00.496Z,108.70
2018-03-08T03:18:28.108Z,94.93
2018-03-08T03:20:55.732Z,98.33
2018-03-08T03:23:24.734Z,108.43
2018-03-08T03:25:53.117Z,102.07
2018-03-08T03:28:20.836Z,101.60
2018-03-08T03:30:48.457Z,116.30
2018-03-08T03:33:16.581Z,94.40
2018-03-08T03:35:44.236Z,116.03
2018-03-08T03:38:11.888Z,110.57
2018-03-08T03:40:39.565Z,107.83
2018-03-08T03:43:07.414Z,109.30
2018-03-08T03:45:35.241Z,96.20
2018-03-08T03:48:02.901Z,107.03
2018-03-08T03:50:30.529Z,93.40
2018-03-08T03:52:58.180Z,119.20
2018-03-08T03:55:25.797Z,109.23
2018-03-08T03:57:53.469Z,108.70
2018-03-08T04:00:21.085Z,117.00
2018-03-08T04:02:49.805Z,118.27
2018-03-08T04:05:17.422Z,108.83
2018-03-08T04:07:45.036Z,108.00
2018-03-08T04:10:12.700Z,106.28
2018-03-08T04:12:40.317Z,109.53
2018-03-08T04:15:07.991Z,108.83
2018-03-08T04:17:35.624Z,105.60
2018-03-08T04:20:03.290Z,111.60
2018-03-08T04:22:30.909Z,111.10
2018-03-08T04:24:58.564Z,102.27
2018-03-08T04:27:26.222Z,110.60
2018-03-08T04:29:54.696Z,107.53
2018-03-08T04:32:22.356Z,113.70
2018-03-08T04:34:49.972Z,109.32
2018-03-08T04:37:17.628Z,119.07
2018-03-08T04:39:45.256Z,119.15
2018-03-08T04:42:12.913Z,139.18
2018-03-08T04:44:40.528Z,126.30
2018-03-08T04:47:08.184Z,115.50
2018-03-08T04:49:35.801Z,258.93
2018-03-08T04:52:03.421Z,295.33
2018-03-08T04:54:31.633Z,289.45
2018-03-08T04:56:59.284Z,256.85
2018-03-08T04:59:27.129Z,154.80
2018-03-08T05:01:54.813Z,160.80
2018-03-08T05:04:22.468Z,190.05
2018-03-08T05:06:50.340Z,257.13
2018-03-08T05:09:17.994Z,157.33
2018-03-08T05:11:45.612Z,169.23
2018-03-08T05:14:13.260Z,245.70
2018-03-08T05:16:40.916Z,212.88
2018-03-08T05:19:08.541Z,149.47
2018-03-08T05:21:36.157Z,176.10
2018-03-08T05:24:03.846Z,169.10
2018-03-08T05:26:31.533Z,157.30
2018-03-08T05:28:59.145Z,189.77
2018-03-08T05:31:26.765Z,324.37
2018-03-08T05:33:54.500Z,242.53
2018-03-08T05:36:22.152Z,184.60
2018-03-08T05:38:49.773Z,213.47
2018-03-08T05:41:17.424Z,166.03
2018-03-08T05:43:45.045Z,268.73
2018-03-08T05:46:12.704Z,472.00
2018-03-08T05:48:40.377Z,744.03
2018-03-08T05:51:08.017Z,661.53
2018-03-08T05:53:35.697Z,195.53
2018-03-08T05:56:03.543Z,328.13
2018-03-08T05:58:31.210Z,420.60
2018-03-08T06:00:58.829Z,264.43
2018-03-08T06:03:26.497Z,172.35
2018-03-08T06:05:54.276Z,303.77
2018-03-08T06:08:21.957Z,223.80
2018-03-08T06:10:49.611Z,247.00
2018-03-08T06:13:17.281Z,236.13
2018-03-08T06:15:45.664Z,223.53
2018-03-08T06:18:14.041Z,228.47
2018-03-08T06:20:42.114Z,228.70
2018-03-08T06:23:09.725Z,166.13
2018-03-08T06:25:37.337Z,133.37
2018-03-08T06:28:05.759Z,299.00
2018-03-08T06:30:33.417Z,143.13
2018-03-08T06:33:01.032Z,112.80
2018-03-08T06:35:30.413Z,145.80
2018-03-08T06:37:58.082Z,113.63
2018-03-08T06:40:25.705Z,113.50
2018-03-08T06:42:54.285Z,133.02
2018-03-08T06:45:21.900Z,128.52
2018-03-08T06:47:49.563Z,129.12
2018-03-08T06:50:17.949Z,125.60
2018-03-08T06:52:46.382Z,134.73
2018-03-08T06:55:14.972Z,127.43
2018-03-08T06:57:43.440Z,127.25
2018-03-08T07:00:11.278Z,148.40
2018-03-08T07:02:38.972Z,133.93
2018-03-08T07:05:07.192Z,152.47
2018-03-08T07:07:35.106Z,130.90
2018-03-08T07:10:02.833Z,143.47
2018-03-08T07:12:31.420Z,124.13
2018-03-08T07:14:59.857Z,164.83
2018-03-08T07:17:27.484Z,151.57
2018-03-08T07:19:55.140Z,139.23
2018-03-08T07:22:22.761Z,147.13
2018-03-08T07:24:50.425Z,144.73
2018-03-08T07:27:18.046Z,155.40
2018-03-08T07:29:45.721Z,144.73
2018-03-08T07:32:13.357Z,141.70
2018-03-08T07:34:41.441Z,154.87
2018-03-08T07:37:09.869Z,154.77
2018-03-08T07:39:37.534Z,174.70
2018-03-08T07:42:05.184Z,131.07
2018-03-08T07:44:33.372Z,157.00
2018-03-08T07:47:01.030Z,143.23
2018-03-08T07:49:28.680Z,148.20
2018-03-08T07:51:56.359Z,137.70
2018-03-08T07:54:24.022Z,154.07
2018-03-08T07:56:51.637Z,140.03
2018-03-08T07:59:19.627Z,127.53
2018-03-08T08:01:47.288Z,127.35
2018-03-08T08:04:26.782Z,130.97
2018-03-08T08:20:25.387Z,93.85
2018-03-08T08:22:53.001Z,90.93
2018-03-08T08:25:21.333Z,88.05
2018-03-08T08:27:48.948Z,79.97
2018-03-08T08:30:16.596Z,61.97
2018-03-08T08:32:44.319Z,63.77
2018-03-08T08:35:11.977Z,71.03
2018-03-08T08:37:39.634Z,65.63
2018-03-08T08:40:07.297Z,57.65
2018-03-08T08:42:34.912Z,47.27
2018-03-08T08:45:02.529Z,49.60
2018-03-08T08:47:30.177Z,50.73
2018-03-08T08:49:57.837Z,48.23
2018-03-08T08:52:25.497Z,46.10
2018-03-08T08:54:53.741Z,40.07
2018-03-08T08:57:21.394Z,42.03
2018-03-08T08:59:49.021Z,43.35
2018-03-08T09:02:16.681Z,44.47
2018-03-08T09:04:44.345Z,50.40
2018-03-08T09:07:11.997Z,47.70
2018-03-08T09:09:40.354Z,46.95
2018-03-08T09:12:07.967Z,48.13
2018-03-08T09:14:36.382Z,41.00
2018-03-08T09:17:03.992Z,35.70
2018-03-08T09:19:31.661Z,44.40
2018-03-08T09:21:59.289Z,37.58
2018-03-08T09:24:26.965Z,37.10
2018-03-08T09:26:54.615Z,41.47
2018-03-08T09:29:22.260Z,43.93
2018-03-08T09:31:49.873Z,41.23
2018-03-08T09:34:17.516Z,40.17
2018-03-08T09:36:45.904Z,39.87
2018-03-08T09:39:14.317Z,44.23
2018-03-08T09:41:41.925Z,41.63
2018-03-08T09:44:09.577Z,42.23
2018-03-08T09:46:37.225Z,44.10
2018-03-08T09:49:04.893Z,45.57
2018-03-08T09:51:32.505Z,40.10
2018-03-08T09:54:00.170Z,47.75
2018-03-08T09:56:27.776Z,40.10
2018-03-08T09:58:55.399Z,48.20
2018-03-08T10:01:23.069Z,45.33
2018-03-08T10:03:50.685Z,41.20
2018-03-08T10:06:18.347Z,39.95
2018-03-08T10:08:46.729Z,46.33
2018-03-08T10:11:15.112Z,45.00
2018-03-08T10:13:43.532Z,43.53
2018-03-08T10:16:11.142Z,45.47
2018-03-08T10:18:38.789Z,46.70
2018-03-08T10:21:06.401Z,55.77
2018-03-08T10:23:34.060Z,54.03
2018-03-08T10:26:01.675Z,50.53
2018-03-08T10:28:29.344Z,56.50
2018-03-08T10:30:56.958Z,62.30
2018-03-08T10:33:24.585Z,61.28
2018-03-08T10:35:52.229Z,62.90
2018-03-08T10:38:19.849Z,57.53
2018-03-08T10:40:47.517Z,64.63
2018-03-08T10:43:15.151Z,66.68
2018-03-08T10:45:42.801Z,63.20
2018-03-08T10:48:10.408Z,60.15
2018-03-08T10:50:38.072Z,59.37
2018-03-08T10:53:06.453Z,65.47
2018-03-08T10:55:34.100Z,61.70
2018-03-08T10:58:03.825Z,54.00
2018-03-08T11:00:37.816Z,51.40
2018-03-08T11:03:06.981Z,53.60
2018-03-08T11:05:39.624Z,46.70
2018-03-08T11:08:07.251Z,43.40
2018-03-08T11:10:35.045Z,40.10
2018-03-08T11:13:02.665Z,43.10
2018-03-08T11:15:30.488Z,42.53
2018-03-08T11:17:58.106Z,42.47
2018-03-08T11:20:25.726Z,38.63
2018-03-08T11:22:53.390Z,45.00
2018-03-08T11:25:21.045Z,44.57
2018-03-08T11:27:48.665Z,46.80
2018-03-08T11:30:17.089Z,44.77
2018-03-08T11:32:44.773Z,41.93
2018-03-08T11:35:12.442Z,45.05
2018-03-08T11:37:40.105Z,48.17
2018-03-08T11:40:07.724Z,45.63
2018-03-08T11:42:35.338Z,44.07
2018-03-08T11:45:03.000Z,39.67
2018-03-08T11:47:31.382Z,40.70
2018-03-08T11:49:59.798Z,43.77
2018-03-08T11:52:27.759Z,38.17
2018-03-08T11:54:55.435Z,44.72
2018-03-08T11:57:23.056Z,47.15
2018-03-08T11:59:50.769Z,41.28
2018-03-08T12:02:18.429Z,40.45
2018-03-08T12:04:46.081Z,42.22
2018-03-08T12:07:13.737Z,43.83
2018-03-08T12:09:41.395Z,39.55
2018-03-08T12:12:09.052Z,42.05
2018-03-08T12:14:36.665Z,42.43
2018-03-08T12:17:04.551Z,42.37
2018-03-08T12:19:32.965Z,43.33
2018-03-08T12:22:00.618Z,42.90
2018-03-08T12:24:28.285Z,44.80
2018-03-08T12:26:55.938Z,45.37
2018-03-08T12:29:23.545Z,41.53
2018-03-08T12:31:51.196Z,45.45
2018-03-08T12:34:18.857Z,43.93
2018-03-08T12:36:46.787Z,43.10
2018-03-08T12:39:14.446Z,41.07
2018-03-08T12:41:42.140Z,38.53
2018-03-08T12:44:09.797Z,34.60
2018-03-08T12:46:37.444Z,37.20
2018-03-08T12:49:05.132Z,37.77
2018-03-08T12:51:32.749Z,40.03
2018-03-08T12:54:00.417Z,38.23
2018-03-08T12:56:28.045Z,37.70
2018-03-08T12:58:55.657Z,34.90
2018-03-08T13:01:23.317Z,35.03
2018-03-08T13:03:50.968Z,37.25
2018-03-08T13:06:18.586Z,35.40
2018-03-08T13:08:46.233Z,39.38
2018-03-08T13:11:13.893Z,32.17
2018-03-08T13:13:41.509Z,31.37
2018-03-08T13:16:09.165Z,31.33
2018-03-08T13:18:36.816Z,29.10
2018-03-08T13:21:04.641Z,27.20
2018-03-08T13:23:32.260Z,30.90
2018-03-08T13:25:59.909Z,24.70
2018-03-08T13:28:27.543Z,26.30
2018-03-08T13:30:55.201Z,25.47
2018-03-08T13:33:22.812Z,25.60
2018-03-08T13:35:51.469Z,22.17
2018-03-08T13:38:19.085Z,21.43
2018-03-08T13:40:46.760Z,19.67
2018-03-08T13:43:14.405Z,19.60
2018-03-08T13:45:42.664Z,17.80
2018-03-08T13:48:10.296Z,21.45
2018-03-08T13:50:37.942Z,22.00
2018-03-08T13:53:05.606Z,18.13
2018-03-08T13:55:33.450Z,17.90
2018-03-08T13:58:01.793Z,18.50
2018-03-08T14:00:30.326Z,17.77
2018-03-08T14:02:57.977Z,18.40
2018-03-08T14:05:25.622Z,18.80
2018-03-08T14:07:53.236Z,13.45
2018-03-08T14:10:21.415Z,17.23
2018-03-08T14:12:49.807Z,13.93
2018-03-08T14:15:17.469Z,17.10
2018-03-08T14:17:45.284Z,15.95
2018-03-08T14:20:13.060Z,14.18
2018-03-08T14:22:40.677Z,12.55
2018-03-08T14:25:08.324Z,12.43
2018-03-08T14:27:35.930Z,10.95
2018-03-08T14:30:03.589Z,15.73
2018-03-08T14:32:31.213Z,11.73
2018-03-08T14:34:59.009Z,12.63
2018-03-08T14:37:26.620Z,12.00
2018-03-08T14:39:54.533Z,12.33
2018-03-08T14:42:22.874Z,10.50
2018-03-08T14:44:50.690Z,15.70
2018-03-08T14:47:18.665Z,18.13
2018-03-08T14:49:46.320Z,12.40
2018-03-08T14:52:14.085Z,12.77
2018-03-08T14:54:42.340Z,11.60
2018-03-08T14:57:09.965Z,14.53
2018-03-08T14:59:37.995Z,13.10
2018-03-08T15:02:06.229Z,13.07
2018-03-08T15:04:33.894Z,14.93
2018-03-08T15:07:01.663Z,11.47
2018-03-08T15:09:29.313Z,14.02
2018-03-08T15:11:56.967Z,10.90
2018-03-08T15:14:24.644Z,15.52
2018-03-08T15:16:55.750Z,10.97
2018-03-08T15:19:23.665Z,11.90
2018-03-08T15:21:51.316Z,9.93
2018-03-08T15:24:19.017Z,12.05
2018-03-08T15:26:46.671Z,12.73
2018-03-08T15:29:14.294Z,16.40
2018-03-08T15:31:41.945Z,11.50
2018-03-08T15:34:09.597Z,10.75
2018-03-08T15:36:37.225Z,11.80
2018-03-08T15:39:04.870Z,11.30
2018-03-08T15:41:33.208Z,10.83
2018-03-08T15:44:00.868Z,10.95
2018-03-08T15:46:28.912Z,11.60
2018-03-08T15:48:56.564Z,17.33
2018-03-08T15:51:24.164Z,12.97
2018-03-08T15:53:51.781Z,12.53
2018-03-08T15:56:20.025Z,11.60
2018-03-08T15:58:48.397Z,15.13
2018-03-08T16:01:16.851Z,11.57
2018-03-08T16:03:44.501Z,9.23
2018-03-08T16:06:12.124Z,13.57
2018-03-08T16:09:06.425Z,12.80
2018-03-08T16:11:34.640Z,12.18
2018-03-08T16:14:02.280Z,9.90
2018-03-08T16:16:29.925Z,12.33
2018-03-08T16:18:57.590Z,11.07
2018-03-08T16:21:25.257Z,10.63
2018-03-08T16:23:52.910Z,9.38
2018-03-08T16:26:20.510Z,9.20
2018-03-08T16:28:48.114Z,8.68
2018-03-08T16:31:15.756Z,11.17
2018-03-08T16:33:43.401Z,8.27
2018-03-08T16:36:11.040Z,7.57
2018-03-08T16:38:38.648Z,8.40
2018-03-08T16:41:06.292Z,8.73
2018-03-08T16:43:33.933Z,6.57
2018-03-08T16:46:02.309Z,6.07
2018-03-08T16:48:30.727Z,6.17
2018-03-08T16:50:58.423Z,7.45
2018-03-08T16:53:26.024Z,6.57
2018-03-08T16:55:53.730Z,6.37
2018-03-08T16:58:21.368Z,8.53
2018-03-08T17:00:48.973Z,6.07
2018-03-08T17:03:16.631Z,5.50
2018-03-08T17:05:44.407Z,9.43
2018-03-08T17:08:12.833Z,6.15
2018-03-08T17:10:40.489Z,5.53
2018-03-08T17:13:08.100Z,6.83
2018-03-08T17:15:35.700Z,7.53
2018-03-08T17:18:03.354Z,7.63
2018-03-08T17:20:31.007Z,5.70
2018-03-08T17:22:59.665Z,8.10
2018-03-08T17:25:27.256Z,6.30
2018-03-08T17:27:54.900Z,8.13
2018-03-08T17:30:23.310Z,6.50
2018-03-08T17:32:50.960Z,8.57
2018-03-08T17:35:18.559Z,7.23
2018-03-08T17:37:46.312Z,6.40
2018-03-08T17:40:15.518Z,5.90
2018-03-08T17:42:43.364Z,9.50
2018-03-08T17:45:11.051Z,7.68
2018-03-08T17:47:38.692Z,9.10
2018-03-08T17:50:07.190Z,7.60
2018-03-08T17:52:34.949Z,8.67
2018-03-08T17:55:02.594Z,7.40
2018-03-08T17:57:30.361Z,8.47
2018-03-08T17:59:58.000Z,7.03
2018-03-08T18:02:25.633Z,6.67
2018-03-08T18:04:53.289Z,8.60
2018-03-08T18:07:20.894Z,9.13
2018-03-08T18:09:48.492Z,6.30
2018-03-08T18:12:16.901Z,6.90
2018-03-08T18:14:44.814Z,6.30
2018-03-08T18:17:12.416Z,7.28
2018-03-08T18:19:40.326Z,6.53
2018-03-08T18:22:07.938Z,7.82
2018-03-08T18:24:35.586Z,7.53
2018-03-08T18:27:03.188Z,6.68
2018-03-08T18:29:30.833Z,9.57
2018-03-08T18:31:58.441Z,6.80
2018-03-08T18:34:26.086Z,7.20
2018-03-08T18:36:53.692Z,7.00
2018-03-08T18:39:21.342Z,8.00
2018-03-08T18:41:49.013Z,9.40
2018-03-08T18:44:17.422Z,7.60
2018-03-08T18:46:45.040Z,12.50
2018-03-08T18:49:12.708Z,7.82
2018-03-08T18:51:41.257Z,8.90
2018-03-08T18:54:08.869Z,7.23
2018-03-08T18:56:40.102Z,9.10
2018-03-08T18:59:08.470Z,8.10
2018-03-08T19:01:36.109Z,8.23
2018-03-08T19:04:03.846Z,10.73
2018-03-08T19:06:31.489Z,11.55
2018-03-08T19:08:59.093Z,10.00
2018-03-08T19:11:26.737Z,10.67
2018-03-08T19:13:54.345Z,10.23
2018-03-08T19:16:21.992Z,10.43
2018-03-08T19:18:50.361Z,10.70
2018-03-08T19:21:18.768Z,8.60
2018-03-08T19:23:46.379Z,11.02
2018-03-08T19:26:14.036Z,15.53
2018-03-08T19:28:41.783Z,13.40
2018-03-08T19:31:15.221Z,11.40
2018-03-08T19:33:43.157Z,11.10
2018-03-08T19:36:10.806Z,10.47
2018-03-08T19:38:42.088Z,11.20
2018-03-08T19:41:09.764Z,10.30
2018-03-08T19:43:38.901Z,14.40
2018-03-08T19:46:06.517Z,12.02
2018-03-08T19:48:34.943Z,13.07
2018-03-08T19:51:02.640Z,17.97
2018-03-08T19:53:30.382Z,14.27
2018-03-08T19:55:58.028Z,14.50
2018-03-08T19:58:25.709Z,13.40
2018-03-08T20:00:53.354Z,14.55
2018-03-08T20:03:21.008Z,12.43
2018-03-08T20:05:48.621Z,17.10
2018-03-08T20:08:17.008Z,14.60
2018-03-08T20:10:44.853Z,15.50
2018-03-08T20:13:12.788Z,15.63
2018-03-08T20:15:40.438Z,15.32
2018-03-08T20:18:08.054Z,13.60
2018-03-08T20:20:36.476Z,14.25
2018-03-08T20:23:04.153Z,13.32
2018-03-08T20:25:32.004Z,12.93
2018-03-08T20:27:59.649Z,12.43
2018-03-08T20:30:27.257Z,11.93
2018-03-08T20:32:54.914Z,16.73
2018-03-08T20:35:22.541Z,13.62
2018-03-08T20:37:50.185Z,13.60
2018-03-08T20:40:17.798Z,11.90
2018-03-08T20:42:45.449Z,12.97
2018-03-08T20:45:13.060Z,11.03
2018-03-08T20:47:41.197Z,10.63
2018-03-08T20:50:09.630Z,6.43
2018-03-08T20:52:37.302Z,8.48
2018-03-08T20:55:04.945Z,7.10
2018-03-08T20:57:32.550Z,7.18
2018-03-08T21:00:00.962Z,9.80
2018-03-08T21:02:28.564Z,6.82
2018-03-08T21:04:56.216Z,5.53
2018-03-08T21:07:23.856Z,6.43
2018-03-08T21:09:51.459Z,3.00
2018-03-08T21:12:19.867Z,5.45
2018-03-08T21:14:47.516Z,6.40
2018-03-08T21:17:15.891Z,5.00
2018-03-08T21:19:44.496Z,4.78
2018-03-08T21:22:12.297Z,5.50
2018-03-08T21:24:39.905Z,8.10
2018-03-08T21:27:07.555Z,5.87
2018-03-08T21:29:35.929Z,4.80
2018-03-08T21:32:04.337Z,5.27
2018-03-08T21:34:31.981Z,3.70
2018-03-08T21:36:59.608Z,4.47
2018-03-08T21:39:28.015Z,4.95
2018-03-08T21:41:55.617Z,6.73
2018-03-08T21:44:23.261Z,4.00
2018-03-08T21:46:51.157Z,6.55
2018-03-08T21:49:18.917Z,4.40
2018-03-08T21:51:46.524Z,4.40
2018-03-08T21:54:14.165Z,4.30
2018-03-08T21:56:42.542Z,4.20
2018-03-08T21:59:10.184Z,3.30
2018-03-08T22:01:37.790Z,4.30
2018-03-08T22:04:05.392Z,4.13
2018-03-08T22:06:33.042Z,6.53
2018-03-08T22:09:00.642Z,3.53
2018-03-08T22:11:28.249Z,3.12
2018-03-08T22:13:55.889Z,3.97
2018-03-08T22:16:23.525Z,4.87
2018-03-08T22:18:51.182Z,4.10
2018-03-08T22:21:19.593Z,5.03
2018-03-08T22:23:47.288Z,4.87
2018-03-08T22:26:14.934Z,5.28
2018-03-08T22:28:42.547Z,6.43
2018-03-08T22:31:10.957Z,8.68
2018-03-08T22:33:38.597Z,9.40
2018-03-08T22:36:06.241Z,8.43
2018-03-08T22:38:33.881Z,8.63
2018-03-08T22:41:01.550Z,11.20
2018-03-08T22:43:29.765Z,8.77
2018-03-08T22:45:57.420Z,13.50
2018-03-08T22:48:25.126Z,9.93
2018-03-08T22:50:53.357Z,9.47
2018-03-08T22:53:21.001Z,8.77
2018-03-08T22:55:48.644Z,10.00
2018-03-08T22:58:17.053Z,10.88
2018-03-08T23:00:44.668Z,10.43
2018-03-08T23:03:17.837Z,10.70
2018-03-08T23:05:45.447Z,11.30
2018-03-08T23:08:13.865Z,14.63
2018-03-08T23:10:41.521Z,13.57
2018-03-08T23:13:09.128Z,11.35
2018-03-08T23:15:36.778Z,12.83
2018-03-08T23:18:04.401Z,11.77
2018-03-08T23:20:32.044Z,13.50
2018-03-08T23:22:59.649Z,13.98
2018-03-08T23:25:27.308Z,13.13
2018-03-08T23:27:54.921Z,14.82
2018-03-08T23:30:22.726Z,16.00
2018-03-08T23:32:50.340Z,17.27
2018-03-08T23:35:17.989Z,17.80
2018-03-08T23:37:46.360Z,16.55
2018-03-08T23:40:15.093Z,17.50
2018-03-08T23:42:42.741Z,21.27
2018-03-08T23:45:10.356Z,18.07
2018-03-08T23:47:38.004Z,19.02
2018-03-08T23:50:05.658Z,22.37
2018-03-08T23:52:33.310Z,22.87
2018-03-08T23:55:00.920Z,22.43
2018-03-08T23:57:28.564Z,17.43
2018-03-08T23:59:56.181Z,19.17
